createdAt,value
2023-01-20T00:01:20.184Z,14.53
2023-01-20T00:03:48.027Z,13.40
2023-01-20T00:06:14.743Z,12.87
2023-01-20T00:08:41.628Z,14.03
2023-01-20T00:11:10.363Z,14.23
2023-01-20T00:13:37.391Z,12.57
2023-01-20T00:16:06.277Z,14.30
2023-01-20T00:18:34.871Z,11.40
2023-01-20T00:21:09.957Z,12.93
2023-01-20T00:23:36.821Z,11.53
2023-01-20T00:26:05.854Z,12.90
2023-01-20T00:28:33.403Z,11.93
2023-01-20T00:31:19.448Z,11.73
2023-01-20T00:33:47.412Z,12.77
2023-01-20T00:36:16.008Z,12.03
2023-01-20T00:38:42.933Z,16.53
2023-01-20T00:41:10.328Z,11.37
2023-01-20T00:43:37.093Z,13.37
2023-01-20T00:46:04.931Z,15.13
2023-01-20T00:48:31.802Z,13.87
2023-01-20T00:50:58.671Z,12.20
2023-01-20T00:53:25.461Z,13.40
2023-01-20T00:55:52.102Z,14.03
2023-01-20T00:58:18.801Z,11.87
2023-01-20T01:00:53.059Z,11.33
2023-01-20T01:03:20.064Z,11.83
2023-01-20T01:05:47.138Z,12.80
2023-01-20T01:08:14.115Z,12.37
2023-01-20T01:10:41.080Z,12.27
2023-01-20T01:13:08.689Z,13.40
2023-01-20T01:15:36.076Z,13.23
2023-01-20T01:18:03.517Z,13.40
2023-01-20T01:20:30.999Z,12.47
2023-01-20T01:22:57.685Z,10.73
2023-01-20T01:25:24.531Z,12.70
2023-01-20T01:27:51.064Z,14.27
2023-01-20T01:30:17.736Z,14.87
2023-01-20T01:32:44.342Z,13.40
2023-01-20T01:35:11.077Z,11.87
2023-01-20T01:37:37.723Z,13.50
2023-01-20T01:40:05.034Z,15.50
2023-01-20T01:42:31.678Z,14.00
2023-01-20T01:45:10.206Z,13.70
2023-01-20T01:47:40.307Z,13.10
2023-01-20T01:50:09.092Z,12.80
2023-01-20T01:52:35.881Z,12.90
2023-01-20T01:55:03.624Z,12.30
2023-01-20T01:57:31.871Z,9.67
2023-01-20T01:59:58.464Z,8.83
2023-01-20T02:02:25.239Z,11.57
2023-01-20T02:04:51.822Z,8.50
2023-01-20T02:07:20.753Z,11.83
2023-01-20T02:09:47.610Z,13.00
2023-01-20T02:12:20.760Z,11.33
2023-01-20T02:14:53.988Z,11.23
2023-01-20T02:17:45.350Z,14.13
2023-01-20T02:20:27.198Z,13.30
2023-01-20T02:23:02.624Z,12.63
2023-01-20T02:25:41.323Z,13.87
2023-01-20T02:28:49.287Z,14.30
2023-01-20T02:31:42.132Z,13.10
2023-01-20T02:34:17.769Z,16.43
2023-01-20T02:36:54.363Z,14.47
2023-01-20T02:39:45.572Z,14.00
2023-01-20T02:42:27.329Z,12.27
2023-01-20T02:44:59.483Z,12.93
2023-01-20T02:47:35.474Z,12.30
2023-01-20T02:50:09.948Z,11.27
2023-01-20T02:52:42.102Z,12.87
2023-01-20T02:55:13.895Z,13.43
2023-01-20T02:57:46.534Z,11.27
2023-01-20T03:00:20.780Z,11.03
2023-01-20T03:02:51.285Z,10.57
2023-01-20T03:05:23.284Z,10.87
2023-01-20T03:07:51.996Z,13.37
2023-01-20T03:10:21.959Z,11.83
2023-01-20T03:12:54.338Z,11.27
2023-01-20T03:15:25.284Z,12.70
2023-01-20T03:17:52.723Z,12.53
2023-01-20T03:20:19.400Z,14.00
2023-01-20T03:22:46.047Z,13.53
2023-01-20T03:25:14.426Z,10.67
2023-01-20T03:27:42.209Z,11.63
2023-01-20T03:30:16.738Z,10.20
2023-01-20T03:32:46.308Z,10.60
2023-01-20T03:35:16.419Z,13.57
2023-01-20T03:37:44.265Z,13.17
2023-01-20T03:40:12.405Z,13.50
2023-01-20T03:43:01.600Z,12.03
2023-01-20T03:45:51.971Z,14.30
2023-01-20T03:48:40.258Z,12.27
2023-01-20T03:51:15.350Z,13.00
2023-01-20T03:53:48.319Z,10.70
2023-01-20T03:56:20.563Z,11.67
2023-01-20T03:58:51.754Z,13.60
2023-01-20T04:01:23.460Z,12.43
2023-01-20T04:03:54.539Z,13.80
2023-01-20T04:06:26.230Z,12.67
2023-01-20T04:08:58.891Z,14.60
2023-01-20T04:11:27.141Z,14.10
2023-01-20T04:13:54.063Z,14.70
2023-01-20T04:16:21.891Z,14.10
2023-01-20T04:18:51.033Z,16.50
2023-01-20T04:21:32.640Z,12.23
2023-01-20T04:24:12.928Z,14.80
2023-01-20T04:26:39.606Z,13.63
2023-01-20T04:29:10.533Z,13.73
2023-01-20T04:31:39.685Z,13.07
2023-01-20T04:34:06.486Z,15.20
2023-01-20T04:36:33.067Z,14.07
2023-01-20T04:38:59.606Z,10.80
2023-01-20T04:41:26.167Z,11.07
2023-01-20T04:43:52.744Z,13.03
2023-01-20T04:46:19.369Z,13.83
2023-01-20T04:48:46.362Z,15.13
2023-01-20T04:51:13.601Z,13.80
2023-01-20T04:53:40.254Z,19.37
2023-01-20T04:56:15.003Z,16.33
2023-01-20T04:58:42.835Z,16.87
2023-01-20T05:01:09.579Z,20.50
2023-01-20T05:03:36.532Z,14.50
2023-01-20T05:06:03.321Z,15.33
2023-01-20T05:08:30.010Z,17.33
2023-01-20T05:10:56.573Z,15.10
2023-01-20T05:13:23.301Z,14.53
2023-01-20T05:15:49.949Z,15.70
2023-01-20T05:18:16.533Z,15.83
2023-01-20T05:20:45.495Z,14.97
2023-01-20T05:23:12.079Z,18.00
2023-01-20T05:25:38.749Z,21.67
2023-01-20T05:28:05.325Z,20.17
2023-01-20T05:30:32.437Z,21.10
2023-01-20T05:32:59.136Z,19.00
2023-01-20T05:35:26.132Z,19.70
2023-01-20T05:37:54.704Z,20.10
2023-01-20T05:40:21.986Z,20.00
2023-01-20T05:42:48.557Z,18.60
2023-01-20T05:45:15.367Z,19.70
2023-01-20T05:47:42.103Z,17.73
2023-01-20T05:50:09.296Z,15.80
2023-01-20T05:52:35.825Z,18.03
2023-01-20T05:55:02.431Z,17.87
2023-01-20T05:57:28.987Z,23.47
2023-01-20T05:59:55.773Z,18.63
2023-01-20T06:02:22.387Z,16.37
2023-01-20T06:04:49.278Z,17.43
2023-01-20T06:07:15.980Z,21.00
2023-01-20T06:09:42.667Z,17.17
2023-01-20T06:12:09.215Z,16.63
2023-01-20T06:14:35.834Z,15.83
2023-01-20T06:17:02.388Z,18.07
2023-01-20T06:19:28.963Z,17.50
2023-01-20T06:21:55.511Z,17.17
2023-01-20T06:24:22.094Z,18.47
2023-01-20T06:26:51.040Z,18.87
2023-01-20T06:29:17.787Z,18.80
2023-01-20T06:31:45.542Z,17.63
2023-01-20T06:34:12.563Z,14.60
2023-01-20T06:36:39.586Z,15.50
2023-01-20T06:39:06.654Z,16.20
2023-01-20T06:41:33.699Z,13.10
2023-01-20T06:44:00.302Z,14.93
2023-01-20T06:46:27.012Z,18.97
2023-01-20T06:49:00.276Z,19.43
2023-01-20T06:51:29.561Z,20.83
2023-01-20T06:53:56.831Z,19.87
2023-01-20T06:56:24.057Z,18.30
2023-01-20T06:58:51.515Z,16.53
2023-01-20T07:01:38.683Z,20.23
2023-01-20T07:04:06.563Z,21.20
2023-01-20T07:06:38.436Z,18.07
2023-01-20T07:09:06.740Z,18.87
2023-01-20T07:11:35.136Z,18.17
2023-01-20T07:14:02.524Z,18.93
2023-01-20T07:16:29.486Z,18.67
2023-01-20T07:18:56.490Z,23.50
2023-01-20T07:21:26.288Z,20.77
2023-01-20T07:23:53.411Z,21.93
2023-01-20T07:26:22.175Z,17.70
2023-01-20T07:28:49.032Z,16.10
2023-01-20T07:31:21.216Z,14.33
2023-01-20T07:33:48.108Z,13.97
2023-01-20T07:36:16.276Z,16.73
2023-01-20T07:38:43.380Z,14.83
2023-01-20T07:41:16.006Z,15.47
2023-01-20T07:43:44.025Z,15.90
2023-01-20T07:46:11.585Z,15.23
2023-01-20T07:48:38.491Z,13.70
2023-01-20T07:51:07.439Z,14.03
2023-01-20T07:53:37.140Z,13.27
2023-01-20T07:56:10.081Z,13.77
2023-01-20T07:58:36.721Z,14.93
2023-01-20T08:01:20.920Z,16.27
2023-01-20T08:03:47.996Z,13.60
2023-01-20T08:06:17.546Z,15.77
2023-01-20T08:08:44.197Z,12.93
2023-01-20T08:11:13.675Z,16.00
2023-01-20T08:13:40.563Z,15.43
2023-01-20T08:16:10.181Z,17.93
2023-01-20T08:18:37.219Z,18.23
2023-01-20T08:21:07.019Z,18.87
2023-01-20T08:23:34.620Z,16.87
2023-01-20T08:26:03.618Z,18.63
2023-01-20T08:28:31.040Z,18.30
2023-01-20T08:31:12.602Z,15.63
2023-01-20T08:33:42.177Z,14.23
2023-01-20T08:36:11.932Z,16.20
2023-01-20T08:38:38.975Z,16.57
2023-01-20T08:41:15.033Z,19.17
2023-01-20T08:43:41.850Z,22.27
2023-01-20T08:46:11.527Z,22.83
2023-01-20T08:48:39.763Z,28.87
2023-01-20T08:51:14.107Z,20.63
2023-01-20T08:53:40.892Z,21.93
2023-01-20T08:56:07.974Z,17.27
2023-01-20T08:58:34.912Z,16.50
2023-01-20T09:01:02.286Z,21.60
2023-01-20T09:03:28.839Z,21.97
2023-01-20T09:05:55.443Z,14.67
2023-01-20T09:08:22.357Z,14.07
2023-01-20T09:10:48.926Z,13.53
2023-01-20T09:13:15.495Z,14.63
2023-01-20T09:15:42.158Z,18.93
2023-01-20T09:18:08.742Z,32.60
2023-01-20T09:20:35.304Z,16.93
2023-01-20T09:23:02.921Z,15.27
2023-01-20T09:25:29.626Z,15.37
2023-01-20T09:27:56.210Z,13.63
2023-01-20T09:30:22.819Z,11.47
2023-01-20T09:32:53.111Z,11.57
2023-01-20T09:35:20.433Z,11.23
2023-01-20T09:38:05.763Z,9.33
2023-01-20T09:41:01.562Z,9.63
2023-01-20T09:43:56.195Z,10.00
2023-01-20T09:47:06.839Z,11.50
2023-01-20T09:50:31.003Z,10.83
2023-01-20T09:53:20.545Z,12.17
2023-01-20T09:55:50.029Z,11.47
2023-01-20T09:58:25.708Z,12.13
2023-01-20T10:01:06.812Z,10.30
2023-01-20T10:03:56.975Z,12.60
2023-01-20T10:06:43.429Z,11.20
2023-01-20T10:09:23.861Z,12.37
2023-01-20T10:11:56.121Z,10.43
2023-01-20T10:14:34.590Z,10.37
2023-01-20T10:17:19.661Z,10.70
2023-01-20T10:19:54.527Z,9.90
2023-01-20T10:22:32.282Z,9.80
2023-01-20T10:25:09.107Z,13.70
2023-01-20T10:27:39.301Z,9.77
2023-01-20T10:30:10.956Z,8.00
2023-01-20T10:32:41.019Z,10.80
2023-01-20T10:35:16.232Z,9.10
2023-01-20T10:37:43.196Z,9.13
2023-01-20T10:40:43.134Z,9.23
2023-01-20T10:43:15.443Z,11.03
2023-01-20T10:45:57.242Z,10.07
2023-01-20T10:48:54.498Z,8.23
2023-01-20T10:51:34.492Z,8.70
2023-01-20T10:54:14.743Z,10.00
2023-01-20T10:56:53.400Z,9.17
2023-01-20T10:59:31.443Z,8.67
2023-01-20T11:02:12.800Z,8.47
2023-01-20T11:04:40.956Z,7.63
2023-01-20T11:07:16.183Z,8.20
2023-01-20T11:09:43.199Z,10.43
2023-01-20T11:12:20.429Z,10.17
2023-01-20T11:14:47.695Z,7.43
2023-01-20T11:17:18.062Z,9.37
2023-01-20T11:20:03.992Z,7.93
2023-01-20T11:22:34.253Z,9.03
2023-01-20T11:25:04.067Z,6.90
2023-01-20T11:27:45.990Z,10.97
2023-01-20T11:30:31.231Z,10.63
2023-01-20T11:33:28.304Z,7.50
2023-01-20T11:36:16.395Z,8.10
2023-01-20T11:38:46.348Z,9.10
2023-01-20T11:41:31.551Z,7.10
2023-01-20T11:44:00.093Z,8.40
2023-01-20T11:46:28.619Z,6.93
2023-01-20T11:49:15.864Z,10.43
2023-01-20T11:51:46.902Z,8.70
2023-01-20T11:54:31.464Z,9.80
2023-01-20T11:57:05.193Z,12.10
2023-01-20T11:59:35.463Z,7.73
2023-01-20T12:02:05.013Z,10.53
2023-01-20T12:04:43.569Z,9.97
2023-01-20T12:07:19.688Z,8.03
2023-01-20T12:09:51.182Z,12.70
2023-01-20T12:12:24.533Z,12.70
2023-01-20T12:15:18.910Z,8.13
2023-01-20T12:18:09.622Z,9.13
2023-01-20T12:20:54.464Z,9.23
2023-01-20T12:23:52.512Z,8.13
2023-01-20T12:26:21.699Z,8.63
2023-01-20T12:29:09.835Z,8.77
2023-01-20T12:31:36.472Z,7.93
2023-01-20T12:34:10.490Z,8.33
2023-01-20T12:36:57.993Z,8.70
2023-01-20T12:39:40.040Z,9.50
2023-01-20T12:42:09.865Z,8.80
2023-01-20T12:44:55.115Z,9.07
2023-01-20T12:48:08.104Z,9.60
2023-01-20T12:50:43.344Z,9.47
2023-01-20T12:53:22.238Z,10.17
2023-01-20T12:55:57.126Z,13.50
2023-01-20T12:58:36.984Z,8.93
2023-01-20T13:01:20.921Z,10.47
2023-01-20T13:04:22.427Z,12.93
2023-01-20T13:07:23.629Z,15.03
2023-01-20T13:10:14.635Z,9.23
2023-01-20T13:13:02.677Z,25.43
2023-01-20T13:15:55.765Z,15.47
2023-01-20T13:18:35.194Z,17.27
2023-01-20T13:21:01.765Z,8.07
2023-01-20T13:23:36.933Z,10.47
2023-01-20T13:26:05.846Z,12.90
2023-01-20T13:28:32.816Z,14.80
2023-01-20T13:31:01.370Z,13.30
2023-01-20T13:33:38.617Z,13.40
2023-01-20T13:36:23.356Z,10.03
2023-01-20T13:39:11.017Z,11.37
2023-01-20T13:41:56.240Z,14.77
2023-01-20T13:44:42.169Z,22.73
2023-01-20T13:47:10.723Z,9.23
2023-01-20T13:49:55.521Z,17.40
2023-01-20T13:52:52.024Z,18.73
2023-01-20T13:55:49.937Z,22.33
2023-01-20T13:58:32.452Z,17.57
2023-01-20T14:01:01.868Z,19.20
2023-01-20T14:03:30.192Z,12.60
2023-01-20T14:06:11.276Z,13.90
2023-01-20T14:08:49.769Z,13.13
2023-01-20T14:11:19.016Z,13.27
2023-01-20T14:13:53.000Z,13.73
2023-01-20T14:16:36.282Z,14.33
2023-01-20T14:19:34.017Z,12.70
2023-01-20T14:22:04.090Z,15.47
2023-01-20T14:24:33.672Z,13.90
2023-01-20T14:27:17.725Z,14.77
2023-01-20T14:29:45.075Z,16.40
2023-01-20T14:32:34.132Z,16.73
2023-01-20T14:35:02.197Z,16.13
2023-01-20T14:37:31.551Z,15.10
2023-01-20T14:40:01.441Z,17.03
2023-01-20T14:42:29.810Z,18.40
2023-01-20T14:44:57.620Z,15.50
2023-01-20T14:47:26.313Z,16.40
2023-01-20T14:49:54.218Z,15.30
2023-01-20T14:52:26.379Z,17.67
2023-01-20T14:54:56.164Z,15.77
2023-01-20T14:57:27.652Z,18.30
2023-01-20T15:00:12.547Z,19.43
2023-01-20T15:02:40.909Z,12.83
2023-01-20T15:05:29.012Z,13.17
2023-01-20T15:08:32.528Z,12.90
2023-01-20T15:11:14.782Z,9.87
2023-01-20T15:13:43.323Z,10.43
2023-01-20T15:16:12.602Z,12.53
2023-01-20T15:18:39.960Z,10.20
2023-01-20T15:21:26.021Z,9.20
2023-01-20T15:23:52.878Z,10.50
2023-01-20T15:26:28.946Z,8.87
2023-01-20T15:28:57.313Z,10.90
2023-01-20T15:31:24.701Z,7.33
2023-01-20T15:33:51.424Z,8.43
2023-01-20T15:36:24.403Z,9.57
2023-01-20T15:38:51.016Z,9.97
2023-01-20T15:41:18.528Z,11.77
2023-01-20T15:43:45.794Z,8.97
2023-01-20T15:46:14.567Z,8.00
2023-01-20T15:48:42.477Z,6.70
2023-01-20T15:51:14.947Z,8.00
2023-01-20T15:53:41.624Z,5.43
2023-01-20T15:56:29.666Z,6.13
2023-01-20T15:58:57.596Z,7.70
2023-01-20T16:01:26.484Z,6.77
2023-01-20T16:03:56.733Z,4.87
2023-01-20T16:06:29.564Z,6.20
2023-01-20T16:08:56.644Z,4.90
2023-01-20T16:11:23.380Z,5.93
2023-01-20T16:13:50.096Z,5.87
2023-01-20T16:16:22.801Z,5.20
2023-01-20T16:18:49.607Z,4.97
2023-01-20T16:21:18.745Z,5.00
2023-01-20T16:23:45.570Z,5.43
2023-01-20T16:26:29.301Z,5.13
2023-01-20T16:28:57.720Z,7.90
2023-01-20T16:31:26.162Z,5.57
2023-01-20T16:33:54.162Z,5.30
2023-01-20T16:36:22.366Z,5.87
2023-01-20T16:38:49.959Z,4.83
2023-01-20T16:41:27.475Z,4.40
2023-01-20T16:43:55.562Z,4.40
2023-01-20T16:46:28.013Z,4.20
2023-01-20T16:48:59.355Z,5.77
2023-01-20T16:51:26.624Z,4.17
2023-01-20T16:53:53.986Z,4.50
2023-01-20T16:56:24.023Z,4.70
2023-01-20T16:58:52.557Z,5.30
2023-01-20T17:01:23.613Z,5.60
2023-01-20T17:03:56.408Z,4.00
2023-01-20T17:06:29.950Z,3.70
2023-01-20T17:08:58.244Z,5.63
2023-01-20T17:11:31.022Z,4.00
2023-01-20T17:13:59.028Z,3.73
2023-01-20T17:16:26.267Z,4.63
2023-01-20T17:18:55.251Z,4.27
2023-01-20T17:21:23.396Z,4.10
2023-01-20T17:23:51.603Z,5.30
2023-01-20T17:26:19.161Z,4.63
2023-01-20T17:28:46.195Z,4.90
2023-01-20T17:31:13.070Z,4.50
2023-01-20T17:33:44.882Z,4.27
2023-01-20T17:36:11.991Z,3.37
2023-01-20T17:38:41.436Z,3.40
2023-01-20T17:41:08.751Z,3.73
2023-01-20T17:43:37.785Z,4.03
2023-01-20T17:46:22.536Z,3.87
2023-01-20T17:48:49.852Z,3.70
2023-01-20T17:51:24.972Z,5.17
2023-01-20T17:53:52.334Z,3.80
2023-01-20T17:56:21.853Z,3.93
2023-01-20T17:58:49.348Z,4.00
2023-01-20T18:01:21.088Z,3.80
2023-01-20T18:03:50.231Z,3.43
2023-01-20T18:06:19.205Z,3.87
2023-01-20T18:08:51.548Z,3.67
2023-01-20T18:11:21.769Z,4.10
2023-01-20T18:13:53.406Z,3.80
2023-01-20T18:16:22.303Z,3.30
2023-01-20T18:18:50.176Z,3.30
2023-01-20T18:21:16.703Z,3.60
2023-01-20T18:23:44.278Z,3.60
2023-01-20T18:26:13.802Z,3.33
2023-01-20T18:28:41.311Z,3.93
2023-01-20T18:31:10.707Z,3.13
2023-01-20T18:33:40.337Z,3.20
2023-01-20T18:36:09.085Z,3.10
2023-01-20T18:38:35.845Z,4.20
2023-01-20T18:41:03.170Z,3.70
2023-01-20T18:43:30.311Z,3.67
2023-01-20T18:45:56.912Z,4.00
2023-01-20T18:48:25.239Z,3.67
2023-01-20T18:50:52.606Z,3.63
2023-01-20T18:53:19.201Z,3.20
2023-01-20T18:55:45.840Z,3.57
2023-01-20T18:58:16.296Z,3.20
2023-01-20T19:00:43.832Z,3.20
2023-01-20T19:03:10.422Z,3.40
2023-01-20T19:05:37.029Z,4.10
2023-01-20T19:08:05.087Z,3.20
2023-01-20T19:10:31.845Z,2.80
2023-01-20T19:12:58.427Z,3.23
2023-01-20T19:15:25.027Z,3.30
2023-01-20T19:17:51.966Z,2.93
2023-01-20T19:20:18.712Z,2.23
2023-01-20T19:22:45.298Z,2.60
2023-01-20T19:25:12.003Z,2.57
2023-01-20T19:27:38.581Z,2.67
2023-01-20T19:30:05.986Z,2.90
2023-01-20T19:32:32.591Z,2.23
2023-01-20T19:34:59.145Z,2.10
2023-01-20T19:37:25.868Z,2.27
2023-01-20T19:39:52.421Z,3.80
2023-01-20T19:42:18.999Z,4.53
2023-01-20T19:44:45.538Z,4.87
2023-01-20T19:47:12.080Z,4.43
2023-01-20T19:49:38.616Z,6.70
2023-01-20T19:52:05.508Z,4.93
2023-01-20T19:54:33.361Z,5.17
2023-01-20T19:57:00.455Z,19.60
2023-01-20T19:59:27.072Z,6.83
2023-01-20T20:01:53.741Z,5.27
2023-01-20T20:04:20.667Z,4.30
2023-01-20T20:06:48.795Z,5.53
2023-01-20T20:09:18.638Z,4.20
2023-01-20T20:11:45.504Z,4.57
2023-01-20T20:14:14.789Z,6.60
2023-01-20T20:16:41.889Z,4.90
2023-01-20T20:19:11.939Z,4.93
2023-01-20T20:21:38.593Z,4.40
2023-01-20T20:24:05.462Z,4.90
2023-01-20T20:26:35.149Z,5.57
2023-01-20T20:29:03.490Z,5.33
2023-01-20T20:31:30.396Z,4.93
2023-01-20T20:34:01.778Z,5.50
2023-01-20T20:36:30.855Z,5.30
2023-01-20T20:39:01.126Z,5.20
2023-01-20T20:41:31.057Z,4.23
2023-01-20T20:43:59.128Z,5.40
2023-01-20T20:46:26.461Z,5.37
2023-01-20T20:48:54.773Z,5.30
2023-01-20T20:51:23.753Z,6.07
2023-01-20T20:53:54.022Z,4.30
2023-01-20T20:56:21.457Z,4.40
2023-01-20T20:59:00.519Z,6.33
2023-01-20T21:01:29.179Z,5.97
2023-01-20T21:03:57.717Z,6.87
2023-01-20T21:06:25.131Z,6.50
2023-01-20T21:08:52.234Z,6.00
2023-01-20T21:11:20.207Z,6.53
2023-01-20T21:13:49.219Z,6.97
2023-01-20T21:16:20.731Z,6.17
2023-01-20T21:18:47.781Z,7.27
2023-01-20T21:21:17.053Z,7.13
2023-01-20T21:23:48.531Z,6.60
2023-01-20T21:26:15.417Z,6.17
2023-01-20T21:28:42.991Z,5.47
2023-01-20T21:31:11.518Z,6.77
2023-01-20T21:33:38.911Z,7.30
2023-01-20T21:36:07.279Z,7.73
2023-01-20T21:38:33.936Z,6.87
2023-01-20T21:41:09.855Z,7.10
2023-01-20T21:43:57.742Z,6.43
2023-01-20T21:46:25.423Z,7.73
2023-01-20T21:49:10.642Z,8.13
2023-01-20T21:51:56.058Z,7.60
2023-01-20T21:54:22.969Z,8.17
2023-01-20T21:56:51.346Z,6.73
2023-01-20T21:59:18.152Z,7.77
2023-01-20T22:01:44.710Z,6.23
2023-01-20T22:04:11.306Z,7.63
2023-01-20T22:06:37.904Z,7.73
2023-01-20T22:09:04.572Z,7.03
2023-01-20T22:11:31.292Z,7.73
2023-01-20T22:13:57.886Z,7.30
2023-01-20T22:16:25.584Z,7.40
2023-01-20T22:18:53.287Z,6.77
2023-01-20T22:21:21.491Z,7.37
2023-01-20T22:23:48.601Z,8.57
2023-01-20T22:26:15.186Z,7.67
2023-01-20T22:28:41.789Z,8.90
2023-01-20T22:31:13.164Z,10.03
2023-01-20T22:33:40.145Z,8.53
2023-01-20T22:36:07.173Z,8.47
2023-01-20T22:38:34.168Z,7.60
2023-01-20T22:41:09.074Z,7.73
2023-01-20T22:43:37.748Z,7.13
2023-01-20T22:46:04.773Z,8.40
2023-01-20T22:48:33.518Z,8.23
2023-01-20T22:51:09.421Z,8.77
2023-01-20T22:53:36.638Z,9.10
2023-01-20T22:56:14.736Z,8.67
2023-01-20T22:58:41.895Z,8.60
2023-01-20T23:01:19.882Z,7.70
2023-01-20T23:03:47.296Z,8.97
2023-01-20T23:06:14.729Z,7.67
2023-01-20T23:08:41.988Z,8.73
2023-01-20T23:11:12.337Z,8.50
2023-01-20T23:13:39.709Z,8.13
2023-01-20T23:16:10.066Z,8.33
2023-01-20T23:18:36.903Z,7.33
2023-01-20T23:21:05.921Z,7.37
2023-01-20T23:23:33.007Z,8.00
2023-01-20T23:26:04.994Z,7.70
2023-01-20T23:28:31.984Z,7.03
2023-01-20T23:31:00.581Z,8.23
2023-01-20T23:33:27.484Z,6.77
2023-01-20T23:35:54.025Z,7.07
2023-01-20T23:38:20.618Z,7.23
2023-01-20T23:40:50.221Z,6.53
2023-01-20T23:43:16.828Z,7.37
2023-01-20T23:45:43.444Z,7.27
2023-01-20T23:48:10.519Z,8.00
2023-01-20T23:50:37.134Z,7.20
2023-01-20T23:53:03.735Z,7.80
2023-01-20T23:55:30.380Z,6.90
2023-01-20T23:57:56.971Z,6.97
